Time;durP1;ratioP1;P1;durP2;ratioP2;P2;SDS_P1;SDS_P2;PMS_P1;PMS_P2;Temp;Humidity;BMP_temperature;BMP_pressure;BME280_temperature;BME280_humidity;BME280_pressure;Samples;Min_cycle;Max_cycle;Signal;HPM_P1;HPM_P2
2023/09/10 00:00:23;;;;;;;43.05;36.80;;;;;;;18.38;100.00;101544.44;6177209;23;20241;-81
2023/09/10 00:02:48;;;;;;;41.33;36.83;;;;;;;18.38;100.00;101546.31;6182960;23;20005;-81
2023/09/10 00:05:14;;;;;;;42.05;36.35;;;;;;;18.37;100.00;101544.59;6180165;23;20000;-81
2023/09/10 00:07:39;;;;;;;42.20;37.53;;;;;;;18.34;100.00;101543.03;6184591;23;20040;-83
2023/09/10 00:10:05;;;;;;;46.05;36.42;;;;;;;18.31;100.00;101552.34;6178957;23;20004;-83
2023/09/10 00:12:30;;;;;;;45.15;38.17;;;;;;;18.29;100.00;101543.47;6180323;23;20461;-84
2023/09/10 00:14:56;;;;;;;44.67;37.72;;;;;;;18.27;100.00;101550.06;6183570;23;19997;-83
2023/09/10 00:17:21;;;;;;;41.08;35.72;;;;;;;18.24;100.00;101543.03;6181427;23;20092;-83
2023/09/10 00:19:46;;;;;;;41.40;37.03;;;;;;;18.23;100.00;101552.22;6182269;23;20005;-83
2023/09/10 00:22:13;;;;;;;41.20;36.45;;;;;;;18.19;100.00;101545.34;6182847;23;20011;-83
2023/09/10 00:24:39;;;;;;;41.17;35.22;;;;;;;18.17;100.00;101539.22;6180305;23;20055;-83
2023/09/10 00:27:04;;;;;;;41.00;36.63;;;;;;;18.14;100.00;101540.34;6182887;23;20427;-82
2023/09/10 00:29:30;;;;;;;38.15;32.72;;;;;;;18.14;100.00;101542.19;6181765;23;20055;-83
2023/09/10 00:31:55;;;;;;;42.53;35.25;;;;;;;18.14;100.00;101543.06;6181191;23;20021;-83
2023/09/10 00:34:20;;;;;;;41.03;34.08;;;;;;;18.12;100.00;101539.63;6183171;23;20005;-83
2023/09/10 00:36:45;;;;;;;38.58;33.13;;;;;;;18.12;100.00;101536.91;6181884;23;20394;-83
2023/09/10 00:39:11;;;;;;;37.75;33.25;;;;;;;18.12;100.00;101538.78;6180863;23;20453;-83
2023/09/10 00:41:36;;;;;;;37.35;33.10;;;;;;;18.11;100.00;101537.03;6180731;23;20012;-83
2023/09/10 00:44:02;;;;;;;39.83;35.13;;;;;;;18.12;100.00;101536.03;6180084;23;20087;-84
2023/09/10 00:46:28;;;;;;;42.38;34.30;;;;;;;18.09;100.00;101539.06;6180342;23;20343;-83
2023/09/10 00:48:53;;;;;;;38.72;33.53;;;;;;;18.07;100.00;101536.50;6182651;23;20007;-82
2023/09/10 00:51:19;;;;;;;41.30;33.88;;;;;;;18.08;100.00;101538.22;6180933;23;20430;-83
2023/09/10 00:53:45;;;;;;;41.88;33.00;;;;;;;18.08;100.00;101540.94;6182576;23;20028;-83
2023/09/10 00:56:11;;;;;;;44.38;35.35;;;;;;;18.05;100.00;101533.03;6182342;23;20088;-82
2023/09/10 00:58:37;;;;;;;41.17;32.72;;;;;;;18.06;100.00;101544.78;6175060;23;20001;-82
2023/09/10 01:01:03;;;;;;;40.17;33.05;;;;;;;18.05;100.00;101533.03;6181618;23;20005;-78
2023/09/10 01:03:33;;;;;;;40.80;33.88;;;;;;;18.04;100.00;101525.91;6182049;23;20488;-79
2023/09/10 01:05:59;;;;;;;;;;;;;;;18.09;100.00;101533.63;6182435;23;20393;-78
2023/09/10 01:08:24;;;;;;;39.25;33.50;;;;;;;18.03;100.00;101524.19;6180267;23;19931;-78
2023/09/10 01:11:06;;;;;;;38.85;34.60;;;;;;;18.03;100.00;101532.34;6180184;23;20035;-78
2023/09/10 01:14:11;;;;;;;44.17;36.13;;;;;;;18.04;100.00;101539.50;6182022;23;20335;-78
2023/09/10 01:16:44;;;;;;;45.65;35.42;;;;;;;18.02;100.00;101533.31;6180512;23;20001;-78
2023/09/10 01:19:39;;;;;;;42.13;36.40;;;;;;;18.01;100.00;101537.06;6180746;23;20000;-78
2023/09/10 01:22:48;;;;;;;42.05;36.72;;;;;;;18.02;100.00;101537.91;6150370;23;20041;-78
2023/09/10 01:25:13;;;;;;;40.42;35.75;;;;;;;17.99;100.00;101534.50;6165638;23;20008;-78
2023/09/10 01:27:39;;;;;;;44.42;36.70;;;;;;;17.98;100.00;101529.22;6179612;23;20013;-79
2023/09/10 01:30:08;;;;;;;44.88;40.08;;;;;;;17.96;100.00;101537.47;6181450;23;20043;-78
2023/09/10 01:32:41;;;;;;;;;;;;;;;18.00;100.00;101535.34;6180832;23;20009;-79
2023/09/10 01:35:21;;;;;;;47.40;39.65;;;;;;;17.97;100.00;101535.63;6182175;23;19978;-78
2023/09/10 01:38:03;;;;;;;45.47;39.95;;;;;;;17.95;100.00;101534.91;6181873;23;20012;-79
2023/09/10 01:40:42;;;;;;;44.95;39.90;;;;;;;17.93;100.00;101539.66;6182279;23;20028;-78
2023/09/10 01:43:07;;;;;;;42.92;38.22;;;;;;;17.91;100.00;101541.66;6179662;23;20009;-79
2023/09/10 01:45:34;;;;;;;46.92;40.35;;;;;;;17.90;100.00;101542.66;6180205;23;20419;-78
2023/09/10 01:48:01;;;;;;;45.33;38.65;;;;;;;17.90;100.00;101539.94;6181709;23;20420;-78
2023/09/10 01:50:28;;;;;;;47.10;40.13;;;;;;;17.91;100.00;101541.66;6181868;23;20012;-78
2023/09/10 01:52:53;;;;;;;46.45;41.42;;;;;;;17.92;100.00;101548.78;6179958;23;20012;-78
2023/09/10 01:55:19;;;;;;;44.67;39.38;;;;;;;17.92;100.00;101540.63;6180065;23;20286;-78
2023/09/10 01:57:44;;;;;;;47.60;40.58;;;;;;;17.91;100.00;101542.50;6175378;23;20012;-78
2023/09/10 02:00:10;;;;;;;44.55;39.75;;;;;;;17.92;100.00;101548.78;6177071;23;20005;-78
2023/09/10 02:02:35;;;;;;;45.90;39.83;;;;;;;17.91;100.00;101549.81;6181436;23;20027;-78
2023/09/10 02:05:00;;;;;;;47.72;40.97;;;;;;;17.90;100.00;101551.66;6181623;23;19994;-78
2023/09/10 02:07:26;;;;;;;47.50;42.40;;;;;;;17.90;100.00;101548.09;6183594;23;20015;-78
2023/09/10 02:09:51;;;;;;;47.70;42.50;;;;;;;17.90;100.00;101550.81;6185005;23;20031;-78
2023/09/10 02:12:16;;;;;;;48.72;42.33;;;;;;;17.89;100.00;101546.34;6186435;23;20063;-78
2023/09/10 02:14:48;;;;;;;46.33;41.30;;;;;;;17.88;100.00;101552.75;6184898;23;20036;-77
2023/09/10 02:17:13;;;;;;;47.75;42.42;;;;;;;17.89;100.00;101551.78;6184953;23;20490;-78
2023/09/10 02:19:38;;;;;;;45.72;40.20;;;;;;;17.86;100.00;101552.06;6186044;23;20067;-77
2023/09/10 02:22:04;;;;;;;50.40;45.00;;;;;;;17.86;100.00;101549.34;6185458;23;20025;-78
2023/09/10 02:24:29;;;;;;;48.88;43.65;;;;;;;17.86;100.00;101557.50;6185159;23;20080;-78
2023/09/10 02:26:54;;;;;;;50.72;44.65;;;;;;;17.86;100.00;101550.19;6186678;23;20013;-77
2023/09/10 02:29:19;;;;;;;49.25;43.60;;;;;;;17.85;100.00;101548.50;6185134;23;20005;-78
2023/09/10 02:31:45;;;;;;;50.78;45.50;;;;;;;17.84;100.00;101545.91;6184360;23;20009;-78
2023/09/10 02:34:10;;;;;;;46.88;41.78;;;;;;;17.82;100.00;101546.06;6186435;23;20005;-78
2023/09/10 02:36:36;;;;;;;45.03;40.00;;;;;;;17.80;100.00;101546.22;6186513;23;20439;-78
2023/09/10 02:39:01;;;;;;;49.03;42.78;;;;;;;17.79;100.00;101544.47;6187391;23;20009;-78
2023/09/10 02:41:26;;;;;;;49.28;43.85;;;;;;;17.79;100.00;101549.06;6188134;23;20001;-78
2023/09/10 02:43:52;;;;;;;49.45;44.15;;;;;;;17.78;100.00;101544.63;6185736;23;20032;-78
2023/09/10 02:46:17;;;;;;;50.97;44.45;;;;;;;17.76;100.00;101547.50;6186501;23;20032;-78
2023/09/10 02:48:42;;;;;;;52.03;46.42;;;;;;;17.77;100.00;101549.19;6187963;23;20005;-79
2023/09/10 02:51:08;;;;;;;51.80;46.50;;;;;;;17.77;100.00;101543.75;6186095;23;20080;-78
2023/09/10 02:53:33;;;;;;;52.35;46.42;;;;;;;17.77;100.00;101542.91;6188375;23;20051;-77
2023/09/10 02:56:00;;;;;;;50.50;45.10;;;;;;;17.76;100.00;101549.34;6188653;23;20144;-77
2023/09/10 02:58:25;;;;;;;54.03;48.10;;;;;;;17.77;100.00;101553.78;6181554;23;20023;-79
2023/09/10 03:00:50;;;;;;;51.80;46.35;;;;;;;17.76;100.00;101552.94;6183636;23;20426;-77
2023/09/10 03:03:17;;;;;;;57.17;50.90;;;;;;;17.77;100.00;101542.91;6185270;23;19997;-78
2023/09/10 03:05:42;;;;;;;57.80;51.88;;;;;;;17.77;100.00;101551.06;6187344;23;20036;-79
2023/09/10 03:08:07;;;;;;;56.75;50.22;;;;;;;17.78;100.00;101547.34;6185070;23;20013;-78
2023/09/10 03:10:35;;;;;;;54.17;48.45;;;;;;;17.78;100.00;101558.22;6186748;23;20446;-78
2023/09/10 03:13:00;;;;;;;63.08;51.97;;;;;;;17.77;100.00;101548.34;6186532;23;20494;-79
2023/09/10 03:15:29;;;;;;;59.55;53.15;;;;;;;17.77;100.00;101548.34;6185699;23;20086;-78
2023/09/10 03:17:54;;;;;;;62.88;56.13;;;;;;;17.78;100.00;101550.91;6186111;23;20020;-79
2023/09/10 03:20:20;;;;;;;59.30;53.10;;;;;;;17.78;100.00;101541.91;6187496;23;20001;-78
2023/09/10 03:22:45;;;;;;;59.35;52.95;;;;;;;17.76;100.00;101541.19;6185222;23;20060;-78
2023/09/10 03:25:11;;;;;;;56.72;50.78;;;;;;;17.77;100.00;101542.91;6186198;23;20059;-78
2023/09/10 03:27:36;;;;;;;58.38;51.00;;;;;;;17.76;100.00;101539.34;6187757;23;20055;-78
2023/09/10 03:30:02;;;;;;;59.75;53.42;;;;;;;17.77;100.00;101535.59;6184806;23;20005;-78
2023/09/10 03:32:27;;;;;;;57.97;51.67;;;;;;;17.76;100.00;101535.75;6185759;23;20024;-78
2023/09/10 03:34:52;;;;;;;59.28;52.83;;;;;;;17.76;100.00;101533.00;6185613;23;20005;-77
2023/09/10 03:37:18;;;;;;;60.10;54.00;;;;;;;17.74;100.00;101538.59;6186013;23;20005;-78
2023/09/10 03:39:43;;;;;;;58.95;51.90;;;;;;;17.73;100.00;101534.19;6186454;23;20056;-78
2023/09/10 03:42:08;;;;;;;60.95;53.15;;;;;;;17.72;100.00;101537.91;6186874;23;20012;-79
2023/09/10 03:44:34;;;;;;;60.92;54.33;;;;;;;17.71;100.00;101541.59;6186988;23;20037;-77
2023/09/10 03:46:59;;;;;;;57.40;51.25;;;;;;;17.71;100.00;101544.31;6186679;23;20320;-78
2023/09/10 03:49:25;;;;;;;59.25;52.85;;;;;;;17.71;100.00;101535.31;6184325;23;20004;-77
2023/09/10 03:51:52;;;;;;;59.72;53.40;;;;;;;17.71;100.00;101538.03;6184731;23;20004;-78
2023/09/10 03:54:17;;;;;;;60.08;52.47;;;;;;;17.71;100.00;101533.44;6184865;23;20005;-77
2023/09/10 03:56:43;;;;;;;61.03;54.60;;;;;;;17.71;100.00;101529.88;6187320;23;20003;-78
2023/09/10 03:59:08;;;;;;;61.88;55.17;;;;;;;17.71;100.00;101536.16;6180306;23;20036;-77
2023/09/10 04:01:35;;;;;;;59.75;53.58;;;;;;;17.70;100.00;101526.31;6185861;23;20017;-78
2023/09/10 04:04:01;;;;;;;59.95;52.45;;;;;;;17.69;100.00;101532.75;6186763;23;20004;-78
2023/09/10 04:06:26;;;;;;;59.70;53.55;;;;;;;17.68;100.00;101525.59;6188321;23;20012;-78
2023/09/10 04:08:52;;;;;;;60.72;54.05;;;;;;;17.68;100.00;101522.88;6185605;23;20343;-77
2023/09/10 04:11:17;;;;;;;62.83;55.78;;;;;;;17.70;100.00;101529.03;6186358;23;20012;-78
2023/09/10 04:13:44;;;;;;;57.83;51.88;;;;;;;17.68;100.00;101525.59;6186010;23;20001;-78
2023/09/10 04:16:09;;;;;;;61.70;55.00;;;;;;;17.67;100.00;101518.41;6186652;23;20004;-77
2023/09/10 04:18:34;;;;;;;62.00;55.53;;;;;;;17.68;100.00;101524.75;6187070;23;20193;-78
2023/09/10 04:21:06;;;;;;;59.60;53.42;;;;;;;17.67;100.00;101526.56;6185256;23;20446;-77
2023/09/10 04:23:32;;;;;;;59.25;52.88;;;;;;;17.68;100.00;101514.72;6186363;23;20316;-78
2023/09/10 04:25:57;;;;;;;62.17;55.38;;;;;;;17.67;100.00;101517.56;6184154;23;20045;-79
2023/09/10 04:28:23;;;;;;;66.70;54.42;;;;;;;17.65;100.00;101510.41;6182605;23;20009;-78
2023/09/10 04:30:48;;;;;;;61.15;54.70;;;;;;;17.65;100.00;101517.72;6180863;23;20408;-78
2023/09/10 04:33:16;;;;;;;61.15;54.47;;;;;;;17.64;100.00;101518.72;6182874;23;20040;-78
2023/09/10 04:35:48;;;;;;;59.75;53.35;;;;;;;17.63;100.00;101520.56;6183251;23;20011;-78
2023/09/10 04:38:13;;;;;;;59.92;53.50;;;;;;;17.63;100.00;101517.00;6180886;23;20084;-78
2023/09/10 04:40:41;;;;;;;63.75;53.15;;;;;;;17.63;100.00;101525.16;6181771;23;20442;-78
2023/09/10 04:43:07;;;;;;;61.72;55.05;;;;;;;17.63;100.00;101522.44;6180950;23;20012;-78
2023/09/10 04:45:32;;;;;;;57.88;51.83;;;;;;;17.61;100.00;101532.59;6182675;23;20001;-78
2023/09/10 04:47:57;;;;;;;57.58;51.53;;;;;;;17.60;100.00;101522.72;6181233;23;20023;-78
2023/09/10 04:50:23;;;;;;;56.83;49.95;;;;;;;17.57;100.00;101520.28;6182781;23;20005;-78
2023/09/10 04:52:48;;;;;;;60.05;53.75;;;;;;;17.58;100.00;101524.72;6181268;23;20008;-78
2023/09/10 04:55:15;;;;;;;57.15;51.08;;;;;;;17.55;100.00;101525.84;6180717;23;20325;-78
2023/09/10 04:57:41;;;;;;;60.65;53.55;;;;;;;17.53;100.00;101527.88;6174870;23;20007;-78
2023/09/10 05:00:08;;;;;;;57.88;51.70;;;;;;;17.52;100.00;101520.72;6176518;23;20009;-78
2023/09/10 05:02:34;;;;;;;59.80;52.20;;;;;;;17.51;100.00;101529.00;6181691;23;20007;-78
2023/09/10 05:04:59;;;;;;;58.33;52.25;;;;;;;17.50;100.00;101530.00;6180264;23;20080;-80
2023/09/10 05:07:24;;;;;;;59.95;51.92;;;;;;;17.50;100.00;101540.88;6182632;23;20331;-78
2023/09/10 05:09:50;;;;;;;59.83;53.83;;;;;;;17.47;100.00;101542.88;6182030;23;20470;-78
2023/09/10 05:12:15;;;;;;;62.67;55.97;;;;;;;17.46;100.00;101533.00;6180265;23;20047;-78
2023/09/10 05:14:40;;;;;;;58.63;52.33;;;;;;;17.46;100.00;101540.31;6182610;23;20032;-78
2023/09/10 05:17:06;;;;;;;59.38;52.97;;;;;;;17.47;100.00;101540.16;6182176;23;20039;-78
2023/09/10 05:19:31;;;;;;;58.55;52.55;;;;;;;17.46;100.00;101545.75;6181631;23;20012;-78
2023/09/10 05:21:57;;;;;;;59.53;52.85;;;;;;;17.44;100.00;101540.44;6182045;23;19997;-78
2023/09/10 05:24:22;;;;;;;58.25;52.03;;;;;;;17.43;100.00;101544.16;6180186;23;20075;-78
2023/09/10 05:26:47;;;;;;;58.92;52.80;;;;;;;17.42;100.00;101538.84;6180336;23;20040;-78
2023/09/10 05:29:13;;;;;;;59.30;53.00;;;;;;;17.43;100.00;101540.59;6180341;23;20099;-78
2023/09/10 05:31:38;;;;;;;60.88;52.47;;;;;;;17.43;100.00;101546.03;6179888;23;20147;-78
2023/09/10 05:34:04;;;;;;;61.42;54.75;;;;;;;17.46;100.00;101543.03;6182039;23;20005;-78
2023/09/10 05:36:29;;;;;;;55.97;50.20;;;;;;;17.47;100.00;101545.59;6180783;23;20056;-83
2023/09/10 05:38:54;;;;;;;56.80;50.80;;;;;;;17.49;100.00;101544.59;6180900;23;20397;-83
2023/09/10 05:41:20;;;;;;;57.83;51.72;;;;;;;17.50;100.00;101544.47;6182478;23;20398;-83
2023/09/10 05:43:45;;;;;;;58.70;52.35;;;;;;;17.52;100.00;101542.44;6182458;23;20378;-84
2023/09/10 05:46:10;;;;;;;60.25;53.80;;;;;;;17.54;100.00;101545.91;6181073;23;20009;-84
2023/09/10 05:48:36;;;;;;;58.35;52.00;;;;;;;17.56;100.00;101543.03;6182826;23;20108;-83
2023/09/10 05:51:01;;;;;;;58.17;51.95;;;;;;;17.58;100.00;101549.19;6181038;23;19997;-84
2023/09/10 05:53:27;;;;;;;58.83;52.53;;;;;;;17.60;100.00;101545.34;6180773;23;20386;-84
2023/09/10 05:55:52;;;;;;;61.40;53.63;;;;;;;17.62;100.00;101547.91;6182601;23;20427;-83
2023/09/10 05:58:19;;;;;;;58.33;51.78;;;;;;;17.64;100.00;101551.31;6175590;23;20493;-83
2023/09/10 06:00:44;;;;;;;60.28;53.88;;;;;;;17.66;100.00;101554.78;6177837;23;20084;-83
2023/09/10 06:03:09;;;;;;;58.35;52.28;;;;;;;17.69;100.00;101550.91;6181601;23;20047;-83
2023/09/10 06:05:35;;;;;;;60.05;52.28;;;;;;;17.73;100.00;101557.78;6180912;23;20375;-83
2023/09/10 06:08:01;;;;;;;64.90;54.83;;;;;;;17.76;100.00;101561.09;6181482;23;20447;-84
2023/09/10 06:10:26;;;;;;;58.08;51.05;;;;;;;17.80;100.00;101562.53;6180412;23;20044;-83
2023/09/10 06:12:51;;;;;;;56.97;51.15;;;;;;;17.85;100.00;101566.66;6179893;23;20013;-83
2023/09/10 06:15:17;;;;;;;59.05;52.70;;;;;;;17.89;100.00;101570.81;6181898;23;20008;-83
2023/09/10 06:17:42;;;;;;;58.17;51.80;;;;;;;17.93;100.00;101572.28;6180320;23;20004;-83
2023/09/10 06:20:08;;;;;;;55.50;49.53;;;;;;;17.96;100.00;101574.72;6180664;23;20016;-83
2023/09/10 06:22:33;;;;;;;56.45;50.30;;;;;;;18.00;100.00;101578.88;6180064;23;20001;-83
2023/09/10 06:24:59;;;;;;;60.22;52.65;;;;;;;18.05;100.00;101570.28;6182210;23;20005;-84
2023/09/10 06:27:24;;;;;;;57.58;51.33;;;;;;;18.09;100.00;101572.56;6180280;23;20009;-83
2023/09/10 06:29:50;;;;;;;57.70;51.63;;;;;;;18.14;100.00;101569.41;6179400;23;20043;-83
2023/09/10 06:32:15;;;;;;;55.83;49.88;;;;;;;18.18;100.00;101576.28;6180599;23;20463;-84
2023/09/10 06:34:40;;;;;;;55.30;49.42;;;;;;;18.23;100.00;101579.44;6182553;23;20033;-84
2023/09/10 06:37:06;;;;;;;57.67;51.40;;;;;;;18.28;100.00;101576.25;6182294;23;20012;-83
2023/09/10 06:39:38;;;;;;;57.65;47.08;;;;;;;18.32;100.00;101572.25;6180681;23;20008;-84
2023/09/10 06:42:05;;;;;;;44.03;37.08;;;;;;;18.37;100.00;101572.66;6180440;23;20001;-84
2023/09/10 06:44:30;;;;;;;47.05;40.88;;;;;;;18.42;100.00;101575.81;6181124;23;20001;-84
2023/09/10 06:46:56;;;;;;;53.58;47.83;;;;;;;18.48;100.00;101577.94;6183453;23;20084;-77
2023/09/10 06:49:21;;;;;;;48.13;39.97;;;;;;;18.48;100.00;101582.53;6185488;23;20419;-77
2023/09/10 06:51:46;;;;;;;46.05;39.03;;;;;;;18.50;100.00;101584.09;6183657;23;20001;-78
2023/09/10 06:54:11;;;;;;;34.78;26.75;;;;;;;18.47;100.00;101581.66;6183963;23;20012;-78
2023/09/10 06:56:37;;;;;;;35.85;25.38;;;;;;;18.50;100.00;101586.81;6184977;23;20028;-77
2023/09/10 06:59:02;;;;;;;33.10;24.60;;;;;;;18.50;100.00;101586.81;6177167;23;20104;-78
2023/09/10 07:01:27;;;;;;;42.95;34.03;;;;;;;18.57;100.00;101594.41;6182907;23;20092;-78
2023/09/10 07:03:53;;;;;;;32.88;24.60;;;;;;;18.56;100.00;101595.41;6182465;23;20012;-77
2023/09/10 07:06:18;;;;;;;33.17;26.67;;;;;;;18.58;100.00;101597.00;6184148;23;20020;-79
2023/09/10 07:08:44;;;;;;;29.30;21.17;;;;;;;18.57;100.00;101599.88;6184544;23;20035;-78
2023/09/10 07:11:09;;;;;;;31.00;22.15;;;;;;;18.63;100.00;101593.81;6184760;23;20005;-77
2023/09/10 07:13:36;;;;;;;29.77;21.90;;;;;;;18.66;100.00;101590.81;6185273;23;20008;-77
2023/09/10 07:16:02;;;;;;;32.17;21.80;;;;;;;18.73;100.00;101604.66;6183111;23;20031;-77
2023/09/10 07:18:32;;;;;;;33.63;25.52;;;;;;;18.84;100.00;101597.22;6185969;23;20080;-78
2023/09/10 07:21:01;;;;;;;29.75;22.45;;;;;;;18.91;100.00;101589.31;6184238;23;20386;-78
2023/09/10 07:23:27;;;;;;;30.80;21.83;;;;;;;18.96;100.00;101597.03;6187106;23;20001;-78
2023/09/10 07:25:53;;;;;;;26.23;18.00;;;;;;;18.95;100.00;101589.88;6185909;23;20001;-77
2023/09/10 07:28:18;;;;;;;26.15;17.05;;;;;;;18.97;100.00;101590.59;6181429;23;20042;-77
2023/09/10 07:30:43;;;;;;;31.73;19.55;;;;;;;19.01;100.00;101597.47;6182506;23;20001;-78
2023/09/10 07:33:09;;;;;;;26.80;18.33;;;;;;;19.08;100.00;101595.84;6182217;23;20013;-77
2023/09/10 07:35:34;;;;;;;24.40;16.05;;;;;;;19.10;100.00;101599.28;6180474;23;20427;-77
2023/09/10 07:37:59;;;;;;;24.70;15.95;;;;;;;19.14;100.00;101588.94;6182631;23;20008;-77
2023/09/10 07:40:24;;;;;;;23.83;17.05;;;;;;;19.17;100.00;101589.50;6181260;23;20123;-77
2023/09/10 07:42:50;;;;;;;23.85;14.57;;;;;;;19.21;100.00;101599.09;6183913;23;20005;-78
2023/09/10 07:45:16;;;;;;;26.67;15.77;;;;;;;19.27;100.00;101597.63;6183666;23;20454;-79
2023/09/10 07:47:41;;;;;;;24.73;16.35;;;;;;;19.32;100.00;101597.16;6185784;23;20041;-78
2023/09/10 07:50:07;;;;;;;25.52;15.73;;;;;;;19.37;100.00;101592.97;6182690;23;20447;-78
2023/09/10 07:52:32;;;;;;;33.60;24.33;;;;;;;19.56;100.00;101588.41;6181128;23;20020;-77
2023/09/10 07:54:57;;;;;;;23.80;16.02;;;;;;;19.53;100.00;101595.03;6188696;23;20016;-79
2023/09/10 07:57:24;;;;;;;30.27;18.02;;;;;;;19.61;100.00;101601.59;6196784;23;20028;-79
2023/09/10 07:59:50;;;;;;;27.58;18.02;;;;;;;19.76;100.00;101600.03;6195284;23;20009;-81
2023/09/10 08:02:16;;;;;;;26.48;16.40;;;;;;;19.72;100.00;101602.22;6194850;23;20008;-79
2023/09/10 08:04:43;;;;;;;26.50;16.65;;;;;;;19.82;100.00;101609.50;6199363;23;19997;-82
2023/09/10 08:07:10;;;;;;;23.40;14.45;;;;;;;19.80;100.00;101612.41;6196938;23;20027;-81
2023/09/10 08:09:35;;;;;;;27.52;15.50;;;;;;;19.87;100.00;101608.03;6193135;23;20015;-80
2023/09/10 08:12:00;;;;;;;22.55;13.60;;;;;;;19.88;100.00;101611.59;6199736;23;20025;-78
2023/09/10 08:14:26;;;;;;;21.75;13.10;;;;;;;19.93;100.00;101622.06;6195863;23;20028;-83
2023/09/10 08:16:51;;;;;;;24.55;13.40;;;;;;;20.01;100.00;101608.50;6192840;23;20005;-80
2023/09/10 08:19:16;;;;;;;24.83;14.38;;;;;;;20.07;100.00;101607.88;6186758;23;20323;-79
2023/09/10 08:21:42;;;;;;;25.23;15.10;;;;;;;20.17;100.00;101608.66;6183341;23;20005;-79
2023/09/10 08:24:07;;;;;;;21.83;12.63;;;;;;;20.21;100.00;101603.75;6184832;23;20397;-78
2023/09/10 08:26:32;;;;;;;23.80;13.40;;;;;;;20.25;100.00;101610.59;6195902;23;20013;-81
2023/09/10 08:28:58;;;;;;;23.73;13.38;;;;;;;20.31;100.00;101609.97;6180921;23;20031;-82
2023/09/10 08:31:23;;;;;;;22.50;12.93;;;;;;;20.33;100.00;101602.47;6181630;23;20048;-82
2023/09/10 08:33:48;;;;;;;23.15;12.98;;;;;;;20.44;100.00;101601.38;6182193;23;20374;-82
2023/09/10 08:36:14;;;;;;;26.02;14.63;;;;;;;20.53;100.00;101597.69;6183676;23;20036;-84
2023/09/10 08:38:39;;;;;;;22.33;12.68;;;;;;;20.57;100.00;101598.19;6194763;23;20009;-84
2023/09/10 08:41:13;;;;;;;23.00;12.98;;;;;;;20.62;100.00;101605.94;6185033;23;20005;-82
2023/09/10 08:43:55;;;;;;;21.70;12.43;;;;;;;20.65;100.00;101600.16;6211996;23;20371;-84
2023/09/10 08:46:23;;;;;;;25.10;12.77;;;;;;;20.69;100.00;101605.16;6184292;23;20007;-82
2023/09/10 08:48:50;;;;;;;22.95;12.75;;;;;;;20.73;100.00;101609.28;6211674;23;20007;-82
2023/09/10 08:51:16;;;;;;;21.48;12.13;;;;;;;20.80;100.00;101603.19;6185034;23;20031;-79
2023/09/10 08:53:43;;;;;;;21.85;11.77;;;;;;;20.82;100.00;101602.00;6184425;23;20009;-79
2023/09/10 08:56:08;;;;;;;21.80;12.25;;;;;;;20.91;100.00;101605.63;6211245;23;20000;-77
2023/09/10 08:58:36;;;;;;;21.20;11.43;;;;;;;20.94;100.00;101603.44;6204267;23;20005;-76
2023/09/10 09:01:03;;;;;;;20.38;11.98;;;;;;;20.99;100.00;101610.28;6180233;23;20021;-79
2023/09/10 09:03:30;;;;;;;22.45;13.10;;;;;;;21.07;100.00;101607.56;6211683;23;20035;-76
2023/09/10 09:05:57;;;;;;;22.63;13.00;;;;;;;21.17;100.00;101607.47;6184109;23;20035;-78
2023/09/10 09:08:29;;;;;;;22.52;11.80;;;;;;;21.24;100.00;101606.63;6210866;23;20471;-78
2023/09/10 09:10:54;;;;;;;23.88;13.13;;;;;;;21.30;100.00;101600.53;6210607;23;20079;-76
2023/09/10 09:13:21;;;;;;;21.27;12.05;;;;;;;21.32;100.00;101604.94;6210063;23;20504;-82
2023/09/10 09:15:48;;;;;;;21.23;11.63;;;;;;;21.37;100.00;101600.72;6183540;23;20615;-82
2023/09/10 09:18:16;;;;;;;21.88;11.68;;;;;;;21.38;100.00;101596.13;6213435;23;20005;-81
2023/09/10 09:20:48;;;;;;;21.55;12.02;;;;;;;21.44;100.00;101593.56;6185250;23;20011;-83
2023/09/10 09:23:20;;;;;;;22.30;12.70;;;;;;;21.52;100.00;101598.22;6211164;23;20008;-81
2023/09/10 09:25:46;;;;;;;21.83;12.30;;;;;;;21.59;100.00;101593.78;6184120;23;20103;-81
2023/09/10 09:28:12;;;;;;;22.10;11.95;;;;;;;21.63;100.00;101594.34;6211398;23;20079;-81
2023/09/10 09:30:38;;;;;;;21.25;11.65;;;;;;;21.68;100.00;101588.34;6184717;23;20031;-82
2023/09/10 09:33:04;;;;;;;22.50;11.73;;;;;;;21.69;100.00;101593.66;6183828;23;20001;-81
2023/09/10 09:35:32;;;;;;;21.27;11.73;;;;;;;21.73;100.00;101588.69;6210489;23;20000;-83
2023/09/10 09:38:04;;;;;;;22.55;11.45;;;;;;;21.80;100.00;101598.81;6210207;23;20036;-80
2023/09/10 09:40:29;;;;;;;23.52;11.48;;;;;;;21.85;100.00;101592.84;6184272;23;20016;-83
2023/09/10 09:42:57;;;;;;;27.35;11.13;;;;;;;21.91;100.00;101591.31;6183481;23;20472;-81
2023/09/10 09:45:23;;;;;;;20.80;11.48;;;;;;;21.95;100.00;101588.06;6183674;23;19997;-83
2023/09/10 09:47:49;;;;;;;21.73;11.02;;;;;;;21.96;100.00;101584.31;6183670;23;20104;-82
2023/09/10 09:50:17;;;;;;;21.42;10.75;;;;;;;22.02;100.00;101581.91;6184193;23;20028;-83
2023/09/10 09:52:50;;;;;;;20.92;10.55;;;;;;;22.13;100.00;101585.16;6183466;23;20004;-81
2023/09/10 09:55:16;;;;;;;23.10;12.13;;;;;;;22.26;100.00;101579.16;6183908;23;19996;-81
2023/09/10 09:57:41;;;;;;;23.90;11.55;;;;;;;22.26;100.00;101576.41;6207188;23;20045;-80
2023/09/10 10:00:10;;;;;;;20.35;10.75;;;;;;;22.32;100.00;101581.25;6177799;23;20016;-84
2023/09/10 10:02:35;;;;;;;21.40;10.20;;;;;;;22.34;100.00;101581.06;6185763;23;20335;-83
2023/09/10 10:05:01;;;;;;;19.67;10.50;;;;;;;22.33;100.00;101585.69;6182892;23;20005;-82
2023/09/10 10:07:28;;;;;;;20.95;10.30;;;;;;;22.37;100.00;101571.66;6183210;23;20007;-82
2023/09/10 10:09:53;;;;;;;20.60;10.13;;;;;;;22.39;100.00;101575.06;6209577;23;20591;-81
2023/09/10 10:12:19;;;;;;;21.40;10.45;;;;;;;22.46;100.00;101573.34;6182481;23;20005;-82
2023/09/10 10:14:45;;;;;;;20.83;9.45;;;;;;;22.43;100.00;101574.56;6182621;23;20411;-81
2023/09/10 10:17:11;;;;;;;21.17;9.88;;;;;;;22.45;100.00;101572.50;6209302;23;20012;-82
2023/09/10 10:19:37;;;;;;;19.95;9.25;;;;;;;22.48;100.00;101571.31;6210532;23;20021;-82
2023/09/10 10:22:04;;;;;;;18.13;8.95;;;;;;;22.49;100.00;101567.53;6210450;23;20465;-82
2023/09/10 10:24:30;;;;;;;21.55;9.80;;;;;;;22.58;100.00;101571.97;6183360;23;20004;-84
2023/09/10 10:26:57;;;;;;;18.67;9.50;;;;;;;22.57;100.00;101569.41;6183329;23;20011;-85
2023/09/10 10:29:23;;;;;;;20.10;8.88;;;;;;;22.60;100.00;101567.16;6183884;23;20004;-84
2023/09/10 10:32:33;;;;;;;20.83;10.25;;;;;;;22.75;100.00;101555.50;6159367;23;20453;-86
2023/09/10 10:35:05;;;;;;;18.00;9.05;;;;;;;22.72;100.00;101564.91;6183498;23;20000;-83
2023/09/10 10:37:56;;;;;;;19.27;9.05;;;;;;;22.74;100.00;101559.25;6210672;23;20399;-85
2023/09/10 10:40:29;;;;;;;18.73;9.30;;;;;;;22.76;99.95;101558.03;6199902;23;20024;-84
2023/09/10 10:42:54;;;;;;;17.60;8.45;;;;;;;22.75;100.00;101555.50;6182942;23;20025;-84
2023/09/10 10:45:20;;;;;;;19.40;9.15;;;;;;;22.75;100.00;101561.81;6183186;23;20132;-85
2023/09/10 10:47:48;;;;;;;19.83;9.05;;;;;;;22.80;100.00;101553.09;6183526;23;20261;-86
2023/09/10 10:50:26;;;;;;;19.80;8.57;;;;;;;22.86;100.00;101555.13;6182781;23;20344;-84
2023/09/10 10:52:59;;;;;;;20.63;8.87;;;;;;;22.90;99.17;101553.75;6210247;23;20004;-84
2023/09/10 10:55:25;;;;;;;17.58;7.97;;;;;;;22.91;97.88;101544.47;6183159;23;20539;-85
2023/09/10 10:57:53;;;;;;;20.33;9.18;;;;;;;22.97;99.50;101549.25;6181679;23;20043;-81
2023/09/10 11:00:20;;;;;;;19.63;8.50;;;;;;;22.98;98.11;101550.94;6203252;23;20008;-83